createdAt,value
2023-04-18T00:00:28.531Z,24.59
2023-04-18T00:01:28.566Z,24.60
2023-04-18T00:02:28.774Z,24.59
2023-04-18T00:03:28.876Z,24.60
2023-04-18T00:04:28.837Z,24.60
2023-04-18T00:05:28.889Z,24.59
2023-04-18T00:06:28.836Z,24.58
2023-04-18T00:07:28.878Z,24.60
2023-04-18T00:08:28.927Z,24.58
2023-04-18T00:09:29.010Z,24.59
2023-04-18T00:10:29.015Z,24.62
2023-04-18T00:11:29.060Z,24.59
2023-04-18T00:12:29.944Z,24.59
2023-04-18T00:13:29.157Z,24.59
2023-04-18T00:14:29.209Z,24.59
2023-04-18T00:15:29.309Z,24.62
2023-04-18T00:16:29.402Z,24.59
2023-04-18T00:17:29.363Z,24.60
2023-04-18T00:18:29.412Z,24.60
2023-04-18T00:19:29.490Z,24.59
2023-04-18T00:20:29.534Z,24.59
2023-04-18T00:21:29.581Z,24.62
2023-04-18T00:22:29.646Z,24.58
2023-04-18T00:23:29.724Z,24.59
2023-04-18T00:24:29.806Z,24.56
2023-04-18T00:25:29.860Z,24.58
2023-04-18T00:26:29.914Z,24.59
2023-04-18T00:27:29.945Z,24.58
2023-04-18T00:28:30.041Z,24.59
2023-04-18T00:29:30.035Z,24.59
2023-04-18T00:30:30.093Z,24.58
2023-04-18T00:31:30.208Z,24.59
2023-04-18T00:32:30.283Z,24.58
2023-04-18T00:33:30.313Z,24.58
2023-04-18T00:34:30.349Z,24.58
2023-04-18T00:35:30.418Z,24.59
2023-04-18T00:36:30.529Z,24.58
2023-04-18T00:37:30.529Z,24.58
2023-04-18T00:38:30.612Z,24.59
2023-04-18T00:39:30.678Z,24.58
2023-04-18T00:40:30.704Z,24.59
2023-04-18T00:41:30.789Z,24.59
2023-04-18T00:42:30.800Z,24.59
2023-04-18T00:43:30.918Z,24.56
2023-04-18T00:44:30.944Z,24.58
2023-04-18T00:45:30.999Z,24.58
2023-04-18T00:46:31.124Z,24.56
2023-04-18T00:47:31.176Z,24.56
2023-04-18T00:48:31.156Z,24.56
2023-04-18T00:49:31.227Z,24.58
2023-04-18T00:50:31.258Z,24.58
2023-04-18T00:51:31.330Z,24.58
2023-04-18T00:52:31.382Z,24.55
2023-04-18T00:53:31.462Z,24.58
2023-04-18T00:54:31.611Z,24.56
2023-04-18T00:55:31.586Z,24.56
2023-04-18T00:56:31.617Z,24.58
2023-04-18T00:57:31.693Z,24.56
2023-04-18T00:58:31.740Z,24.56
2023-04-18T00:59:31.816Z,24.54
2023-04-18T01:00:31.877Z,24.56
2023-04-18T01:01:31.978Z,24.56
2023-04-18T01:02:32.112Z,24.58
2023-04-18T01:03:32.217Z,24.58
2023-04-18T01:04:32.251Z,24.56
2023-04-18T01:05:32.165Z,24.55
2023-04-18T01:06:32.236Z,24.56
2023-04-18T01:07:32.264Z,24.55
2023-04-18T01:08:32.306Z,24.56
2023-04-18T01:09:32.423Z,24.56
2023-04-18T01:10:32.473Z,24.55
2023-04-18T01:11:32.520Z,24.56
2023-04-18T01:12:32.563Z,24.58
2023-04-18T01:13:32.643Z,24.56
2023-04-18T01:14:32.711Z,24.56
2023-04-18T01:15:32.744Z,24.56
2023-04-18T01:16:32.893Z,24.56
2023-04-18T01:17:32.902Z,24.56
2023-04-18T01:18:32.904Z,24.56
2023-04-18T01:19:32.979Z,24.56
2023-04-18T01:20:33.052Z,24.56
2023-04-18T01:21:33.083Z,24.58
2023-04-18T01:22:33.162Z,24.55
2023-04-18T01:23:33.210Z,24.54
2023-04-18T01:24:33.288Z,24.56
2023-04-18T01:25:33.325Z,24.58
2023-04-18T01:26:33.399Z,24.55
2023-04-18T01:27:33.453Z,24.55
2023-04-18T01:28:33.514Z,24.54
2023-04-18T01:29:33.568Z,24.55
2023-04-18T01:30:33.630Z,24.55
2023-04-18T01:31:33.710Z,24.55
2023-04-18T01:32:33.745Z,24.55
2023-04-18T01:33:33.806Z,24.54
2023-04-18T01:34:33.859Z,24.54
2023-04-18T01:35:33.908Z,24.54
2023-04-18T01:36:33.990Z,24.55
2023-04-18T01:37:34.065Z,24.54
2023-04-18T01:38:34.123Z,24.55
2023-04-18T01:39:34.176Z,24.52
2023-04-18T01:40:34.232Z,24.55
2023-04-18T01:41:34.267Z,24.54
2023-04-18T01:42:34.324Z,24.54
2023-04-18T01:43:34.386Z,24.54
2023-04-18T01:44:34.433Z,24.54
2023-04-18T01:45:34.487Z,24.54
2023-04-18T01:46:34.580Z,24.51
2023-04-18T01:47:34.657Z,24.55
2023-04-18T01:48:34.678Z,24.52
2023-04-18T01:49:34.739Z,24.51
2023-04-18T01:50:34.763Z,24.52
2023-04-18T01:51:34.967Z,24.52
2023-04-18T01:52:34.913Z,24.54
2023-04-18T01:53:34.967Z,24.54
2023-04-18T01:54:35.051Z,24.52
2023-04-18T01:55:35.087Z,24.54
2023-04-18T01:56:35.146Z,24.54
2023-04-18T01:57:35.215Z,24.52
2023-04-18T01:58:35.261Z,24.52
2023-04-18T01:59:35.312Z,24.49
2023-04-18T02:00:35.415Z,24.54
2023-04-18T02:01:35.423Z,24.52
2023-04-18T02:02:35.560Z,24.54
2023-04-18T02:03:35.749Z,24.52
2023-04-18T02:04:35.629Z,24.54
2023-04-18T02:05:35.664Z,24.52
2023-04-18T02:06:37.490Z,24.54
2023-04-18T02:07:35.795Z,24.51
2023-04-18T02:08:36.081Z,24.51
2023-04-18T02:09:35.935Z,24.52
2023-04-18T02:10:35.963Z,24.52
2023-04-18T02:11:36.031Z,24.54
2023-04-18T02:12:36.123Z,24.52
2023-04-18T02:13:36.141Z,24.52
2023-04-18T02:14:36.212Z,24.51
2023-04-18T02:15:36.271Z,24.52
2023-04-18T02:16:36.300Z,24.52
2023-04-18T02:17:36.439Z,24.49
2023-04-18T02:18:36.409Z,24.52
2023-04-18T02:19:36.478Z,24.52
2023-04-18T02:20:36.578Z,24.49
2023-04-18T02:21:36.573Z,24.52
2023-04-18T02:22:36.595Z,24.54
2023-04-18T02:23:36.691Z,24.52
2023-04-18T02:24:36.757Z,24.51
2023-04-18T02:25:36.802Z,24.49
2023-04-18T02:26:36.830Z,24.51
2023-04-18T02:27:36.901Z,24.51
2023-04-18T02:28:36.971Z,24.52
2023-04-18T02:29:37.019Z,24.51
2023-04-18T02:30:37.093Z,24.52
2023-04-18T02:31:37.167Z,24.51
2023-04-18T02:32:37.207Z,24.51
2023-04-18T02:33:37.221Z,24.51
2023-04-18T02:34:37.315Z,24.51
2023-04-18T02:35:37.374Z,24.52
2023-04-18T02:36:37.425Z,24.52
2023-04-18T02:37:37.469Z,24.51
2023-04-18T02:38:37.530Z,24.51
2023-04-18T02:39:37.599Z,24.51
2023-04-18T02:40:37.645Z,24.49
2023-04-18T02:41:37.721Z,24.52
2023-04-18T02:42:37.751Z,24.51
2023-04-18T02:43:37.792Z,24.48
2023-04-18T02:44:37.818Z,24.51
2023-04-18T02:45:37.933Z,24.51
2023-04-18T02:46:37.958Z,24.51
2023-04-18T02:47:51.315Z,24.51
2023-04-18T02:48:38.998Z,24.49
2023-04-18T02:49:37.976Z,24.49
2023-04-18T02:50:37.994Z,24.51
2023-04-18T02:51:37.988Z,24.51
2023-04-18T02:52:37.965Z,24.51
2023-04-18T02:53:37.940Z,24.49
2023-04-18T02:54:37.987Z,24.51
2023-04-18T02:55:37.958Z,24.49
2023-04-18T02:56:37.993Z,24.49
2023-04-18T02:57:38.067Z,24.51
2023-04-18T02:58:38.151Z,24.49
2023-04-18T02:59:38.224Z,24.49
2023-04-18T03:00:38.276Z,24.49
2023-04-18T03:01:38.369Z,24.49
2023-04-18T03:02:38.450Z,24.49
2023-04-18T03:03:38.454Z,24.49
2023-04-18T03:04:38.604Z,24.48
2023-04-18T03:05:38.583Z,24.48
2023-04-18T03:06:38.626Z,24.49
2023-04-18T03:07:38.671Z,24.49
2023-04-18T03:08:38.751Z,24.48
2023-04-18T03:09:38.830Z,24.49
2023-04-18T03:10:38.888Z,24.49
2023-04-18T03:11:38.948Z,24.48
2023-04-18T03:12:38.980Z,24.48
2023-04-18T03:13:39.079Z,24.49
2023-04-18T03:14:39.135Z,24.48
2023-04-18T03:15:39.226Z,24.48
2023-04-18T03:16:39.245Z,24.48
2023-04-18T03:17:39.393Z,24.48
2023-04-18T03:18:39.356Z,24.49
2023-04-18T03:19:39.442Z,24.49
2023-04-18T03:20:39.480Z,24.46
2023-04-18T03:21:39.584Z,24.46
2023-04-18T03:22:39.699Z,24.46
2023-04-18T03:23:39.670Z,24.45
2023-04-18T03:24:39.754Z,24.48
2023-04-18T03:25:39.830Z,24.49
2023-04-18T03:26:39.872Z,24.49
2023-04-18T03:27:39.932Z,24.49
2023-04-18T03:28:40.019Z,24.45
2023-04-18T03:29:40.097Z,24.48
2023-04-18T03:30:40.102Z,24.46
2023-04-18T03:31:40.190Z,24.48
2023-04-18T03:32:40.267Z,24.48
2023-04-18T03:33:40.322Z,24.45
2023-04-18T03:34:40.415Z,24.45
2023-04-18T03:35:40.444Z,24.46
2023-04-18T03:36:40.491Z,24.48
2023-04-18T03:37:40.569Z,24.48
2023-04-18T03:38:40.641Z,24.46
2023-04-18T03:39:40.704Z,24.48
2023-04-18T03:40:40.754Z,24.48
2023-04-18T03:41:40.811Z,24.45
2023-04-18T03:42:40.882Z,24.43
2023-04-18T03:43:40.970Z,24.48
2023-04-18T03:44:41.013Z,24.46
2023-04-18T03:45:41.051Z,24.46
2023-04-18T03:46:41.236Z,24.48
2023-04-18T03:47:41.231Z,24.45
2023-04-18T03:48:41.260Z,24.45
2023-04-18T03:49:41.315Z,24.48
2023-04-18T03:50:41.382Z,24.46
2023-04-18T03:51:41.468Z,24.45
2023-04-18T03:52:41.511Z,24.45
2023-04-18T03:53:41.571Z,24.48
2023-04-18T03:54:41.612Z,24.45
2023-04-18T03:55:41.761Z,24.45
2023-04-18T03:56:41.783Z,24.45
2023-04-18T03:57:41.816Z,24.46
2023-04-18T03:58:41.838Z,24.48
2023-04-18T03:59:41.938Z,24.46
2023-04-18T04:00:41.989Z,24.46
2023-04-18T04:01:42.110Z,24.45
2023-04-18T04:02:42.196Z,24.46
2023-04-18T04:03:42.385Z,24.45
2023-04-18T04:04:42.286Z,24.46
2023-04-18T04:05:42.312Z,24.45
2023-04-18T04:06:42.364Z,24.43
2023-04-18T04:07:42.435Z,24.45
2023-04-18T04:08:42.485Z,24.46
2023-04-18T04:09:42.558Z,24.45
2023-04-18T04:10:42.615Z,24.43
2023-04-18T04:11:42.671Z,24.45
2023-04-18T04:12:42.753Z,24.45
2023-04-18T04:13:42.822Z,24.45
2023-04-18T04:14:42.872Z,24.45
2023-04-18T04:15:42.903Z,24.45
2023-04-18T04:16:43.026Z,24.45
2023-04-18T04:17:43.106Z,24.42
2023-04-18T04:18:43.114Z,24.43
2023-04-18T04:19:43.163Z,24.42
2023-04-18T04:20:43.250Z,24.45
2023-04-18T04:21:43.283Z,24.46
2023-04-18T04:22:43.353Z,24.43
2023-04-18T04:23:43.383Z,24.40
2023-04-18T04:24:43.464Z,24.43
2023-04-18T04:25:43.569Z,24.42
2023-04-18T04:26:43.631Z,24.46
2023-04-18T04:27:43.652Z,24.43
2023-04-18T04:28:43.711Z,24.43
2023-04-18T04:29:43.774Z,24.45
2023-04-18T04:30:43.841Z,24.42
2023-04-18T04:31:43.934Z,24.43
2023-04-18T04:32:43.984Z,24.45
2023-04-18T04:33:43.997Z,24.43
2023-04-18T04:34:44.087Z,24.43
2023-04-18T04:35:44.162Z,24.42
2023-04-18T04:36:44.195Z,24.43
2023-04-18T04:37:44.312Z,24.42
2023-04-18T04:38:44.368Z,24.42
2023-04-18T04:39:44.388Z,24.45
2023-04-18T04:40:44.451Z,24.43
2023-04-18T04:41:44.518Z,24.42
2023-04-18T04:42:44.565Z,24.42
2023-04-18T04:43:44.652Z,24.45
2023-04-18T04:44:44.735Z,24.43
2023-04-18T04:45:44.822Z,24.42
2023-04-18T04:46:44.846Z,24.42
2023-04-18T04:47:44.985Z,24.40
2023-04-18T04:48:44.966Z,24.42
2023-04-18T04:49:45.056Z,24.43
2023-04-18T04:50:45.106Z,24.42
2023-04-18T04:51:45.154Z,24.45
2023-04-18T04:52:45.213Z,24.42
2023-04-18T04:53:45.247Z,24.45
2023-04-18T04:54:45.358Z,24.43
2023-04-18T04:55:45.409Z,24.46
2023-04-18T04:56:45.470Z,24.43
2023-04-18T04:57:45.582Z,24.43
2023-04-18T04:58:45.593Z,24.43
2023-04-18T04:59:45.674Z,24.43
2023-04-18T05:00:45.772Z,24.43
2023-04-18T05:01:45.875Z,24.45
2023-04-18T05:02:46.039Z,24.42
2023-04-18T05:03:46.017Z,24.43
2023-04-18T05:04:45.954Z,24.43
2023-04-18T05:05:46.020Z,24.43
2023-04-18T05:06:46.046Z,24.43
2023-04-18T05:07:46.124Z,24.45
2023-04-18T05:08:46.167Z,24.43
2023-04-18T05:09:46.215Z,24.43
2023-04-18T05:10:46.273Z,24.45
2023-04-18T05:11:46.295Z,24.43
2023-04-18T05:12:46.413Z,24.42
2023-04-18T05:13:46.541Z,24.43
2023-04-18T05:14:46.531Z,24.45
2023-04-18T05:15:46.565Z,24.43
2023-04-18T05:16:46.673Z,24.43
2023-04-18T05:17:46.748Z,24.45
2023-04-18T05:18:46.746Z,24.42
2023-04-18T05:19:46.826Z,24.43
2023-04-18T05:20:46.892Z,24.43
2023-04-18T05:21:46.968Z,24.43
2023-04-18T05:22:47.034Z,24.43
2023-04-18T05:23:47.033Z,24.42
2023-04-18T05:24:47.105Z,24.43
2023-04-18T05:25:47.164Z,24.42
2023-04-18T05:26:47.228Z,24.42
2023-04-18T05:27:47.327Z,24.43
2023-04-18T05:28:47.325Z,24.43
2023-04-18T05:29:47.563Z,24.43
2023-04-18T05:30:47.514Z,24.43
2023-04-18T05:31:47.515Z,24.46
2023-04-18T05:32:47.613Z,24.42
2023-04-18T05:33:47.668Z,24.45
2023-04-18T05:34:47.706Z,24.43
2023-04-18T05:35:47.762Z,24.43
2023-04-18T05:36:47.846Z,24.43
2023-04-18T05:37:47.908Z,24.40
2023-04-18T05:38:47.971Z,24.40
2023-04-18T05:39:48.068Z,24.45
2023-04-18T05:40:48.099Z,24.45
2023-04-18T05:41:48.169Z,24.46
2023-04-18T05:42:48.254Z,24.48
2023-04-18T05:44:01.901Z,24.49
2023-04-18T05:44:49.281Z,24.49
2023-04-18T05:45:48.272Z,24.51
2023-04-18T05:46:48.351Z,24.54
2023-04-18T05:47:48.367Z,24.54
2023-04-18T05:48:48.231Z,24.58
2023-04-18T05:49:48.249Z,24.58
2023-04-18T05:50:48.253Z,24.62
2023-04-18T05:51:48.239Z,24.62
2023-04-18T05:52:48.210Z,24.63
2023-04-18T05:53:48.226Z,24.63
2023-04-18T05:54:48.345Z,24.63
2023-04-18T05:55:48.340Z,24.70
2023-04-18T05:56:48.366Z,24.73
2023-04-18T05:57:48.383Z,24.78
2023-04-18T05:58:48.430Z,24.82
2023-04-18T05:59:48.473Z,24.85
2023-04-18T06:00:48.519Z,24.87
2023-04-18T06:01:48.543Z,24.93
2023-04-18T06:02:48.641Z,24.96
2023-04-18T06:03:48.849Z,25.00
2023-04-18T06:04:48.776Z,25.02
2023-04-18T06:05:48.718Z,25.07
2023-04-18T06:06:48.664Z,25.10
2023-04-18T06:07:48.730Z,25.13
2023-04-18T06:08:48.730Z,25.16
2023-04-18T06:09:48.738Z,25.20
2023-04-18T06:10:48.713Z,25.24
2023-04-18T06:11:48.749Z,25.26
2023-04-18T06:12:48.737Z,25.30
2023-04-18T06:13:48.733Z,25.31
2023-04-18T06:14:48.782Z,25.33
2023-04-18T06:15:48.790Z,25.33
2023-04-18T06:16:48.805Z,25.36
2023-04-18T06:17:48.824Z,25.36
2023-04-18T06:18:48.845Z,25.37
2023-04-18T06:19:48.855Z,25.38
2023-04-18T06:20:48.862Z,25.38
2023-04-18T06:21:48.865Z,25.37
2023-04-18T06:22:48.951Z,25.38
2023-04-18T06:23:48.912Z,25.37
2023-04-18T06:24:48.942Z,25.40
2023-04-18T06:25:48.955Z,25.38
2023-04-18T06:26:48.986Z,25.40
2023-04-18T06:27:49.012Z,25.44
2023-04-18T06:28:48.993Z,25.43
2023-04-18T06:29:49.033Z,25.43
2023-04-18T06:30:49.102Z,25.44
2023-04-18T06:31:49.052Z,25.44
2023-04-18T06:32:49.117Z,25.44
2023-04-18T06:33:49.079Z,25.48
2023-04-18T06:34:49.103Z,25.50
2023-04-18T06:35:49.082Z,25.51
2023-04-18T06:36:49.061Z,25.57
2023-04-18T06:37:49.055Z,25.57
2023-04-18T06:38:49.067Z,25.55
2023-04-18T06:39:49.100Z,25.58
2023-04-18T06:40:49.092Z,25.61
2023-04-18T06:41:49.123Z,25.64
2023-04-18T06:42:49.188Z,25.70
2023-04-18T06:44:02.140Z,25.72
2023-04-18T06:44:50.223Z,25.74
2023-04-18T06:45:49.643Z,25.75
2023-04-18T06:46:49.232Z,25.81
2023-04-18T06:47:49.258Z,25.80
2023-04-18T06:48:51.445Z,25.84
2023-04-18T06:49:49.242Z,25.85
2023-04-18T06:50:49.214Z,25.85
2023-04-18T06:51:49.232Z,25.89
2023-04-18T06:52:49.242Z,25.88
2023-04-18T06:53:49.335Z,25.89
2023-04-18T06:54:49.459Z,25.91
2023-04-18T06:55:49.424Z,25.91
2023-04-18T06:56:49.477Z,25.89
2023-04-18T06:57:49.553Z,25.94
2023-04-18T06:58:49.583Z,25.94
2023-04-18T06:59:49.671Z,25.94
2023-04-18T07:00:49.717Z,25.92
2023-04-18T07:01:49.763Z,25.95
2023-04-18T07:02:49.892Z,25.95
2023-04-18T07:03:49.916Z,25.95
2023-04-18T07:04:49.882Z,25.96
2023-04-18T07:05:50.093Z,25.94
2023-04-18T07:06:49.994Z,25.96
2023-04-18T07:07:50.072Z,25.98
2023-04-18T07:08:50.089Z,25.98
2023-04-18T07:09:50.127Z,25.99
2023-04-18T07:10:50.422Z,26.01
2023-04-18T07:11:50.177Z,26.02
2023-04-18T07:12:50.227Z,26.02
2023-04-18T07:13:50.267Z,26.02
2023-04-18T07:14:50.313Z,26.05
2023-04-18T07:15:50.357Z,26.06
2023-04-18T07:16:50.460Z,26.06
2023-04-18T07:17:50.435Z,26.06
2023-04-18T07:18:50.431Z,26.08
2023-04-18T07:19:50.483Z,26.09
2023-04-18T07:20:50.517Z,26.09
2023-04-18T07:21:50.538Z,26.12
2023-04-18T07:22:50.583Z,26.14
2023-04-18T07:23:50.598Z,26.15
2023-04-18T07:24:50.644Z,26.14
2023-04-18T07:25:50.727Z,26.16
2023-04-18T07:26:52.027Z,26.16
2023-04-18T07:27:50.729Z,26.21
2023-04-18T07:28:50.747Z,26.18
2023-04-18T07:29:50.784Z,26.21
2023-04-18T07:30:50.835Z,26.22
2023-04-18T07:31:50.819Z,26.21
2023-04-18T07:32:50.912Z,26.24
2023-04-18T07:33:50.888Z,26.26
2023-04-18T07:34:50.900Z,26.28
2023-04-18T07:35:50.916Z,26.29
2023-04-18T07:36:50.939Z,26.29
2023-04-18T07:37:50.957Z,26.28
2023-04-18T07:38:50.948Z,26.34
2023-04-18T07:39:51.040Z,26.32
2023-04-18T07:40:51.107Z,26.34
2023-04-18T07:41:51.035Z,26.32
2023-04-18T07:42:51.033Z,26.31
2023-04-18T07:43:51.056Z,26.32
2023-04-18T07:44:51.068Z,26.35
2023-04-18T07:45:51.192Z,26.36
2023-04-18T07:46:51.086Z,26.38
2023-04-18T07:47:51.137Z,26.32
2023-04-18T07:48:51.095Z,26.40
2023-04-18T07:49:51.089Z,26.38
2023-04-18T07:50:51.117Z,26.34
2023-04-18T07:51:51.122Z,26.28
2023-04-18T07:52:51.149Z,26.26
2023-04-18T07:53:51.240Z,26.18
2023-04-18T07:54:51.292Z,26.12
2023-04-18T07:55:51.345Z,26.11
2023-04-18T07:56:51.410Z,26.08
2023-04-18T07:57:51.482Z,26.08
2023-04-18T07:58:51.624Z,26.11
2023-04-18T07:59:51.562Z,26.15
2023-04-18T08:00:51.602Z,26.15
2023-04-18T08:01:51.666Z,26.22
2023-04-18T08:02:51.742Z,26.26
2023-04-18T08:03:51.799Z,26.28
2023-04-18T08:04:51.809Z,26.35
2023-04-18T08:05:51.686Z,26.40
2023-04-18T08:06:51.729Z,26.40
2023-04-18T08:07:51.687Z,26.46
2023-04-18T08:08:51.753Z,26.53
2023-04-18T08:09:51.733Z,26.53
2023-04-18T08:10:51.788Z,26.59
2023-04-18T08:11:51.813Z,26.62
2023-04-18T08:12:51.897Z,26.67
2023-04-18T08:13:51.938Z,26.70
2023-04-18T08:14:52.124Z,26.76
2023-04-18T08:15:52.103Z,26.79
2023-04-18T08:16:52.148Z,26.82
2023-04-18T08:17:52.237Z,26.85
2023-04-18T08:18:52.244Z,26.87
2023-04-18T08:19:52.304Z,26.91
2023-04-18T08:20:52.353Z,26.94
2023-04-18T08:21:52.365Z,26.99
2023-04-18T08:23:06.103Z,27.01
2023-04-18T08:23:53.430Z,27.01
2023-04-18T08:25:04.370Z,27.04
2023-04-18T08:25:53.449Z,27.08
2023-04-18T08:26:52.389Z,27.08
2023-04-18T08:27:52.385Z,27.13
2023-04-18T08:28:52.388Z,27.14
2023-04-18T08:29:52.383Z,27.17
2023-04-18T08:30:52.593Z,27.17
2023-04-18T08:31:52.421Z,27.18
2023-04-18T08:32:52.419Z,27.21
2023-04-18T08:33:52.349Z,27.24
2023-04-18T08:34:52.348Z,27.23
2023-04-18T08:35:52.599Z,27.24
2023-04-18T08:36:52.314Z,27.27
2023-04-18T08:37:52.328Z,27.26
2023-04-18T08:38:52.340Z,27.28
2023-04-18T08:39:52.305Z,27.27
2023-04-18T08:40:52.297Z,27.27
2023-04-18T08:41:52.305Z,27.27
2023-04-18T08:42:52.454Z,27.24
2023-04-18T08:43:52.375Z,27.23
2023-04-18T08:44:52.365Z,27.21
2023-04-18T08:45:52.446Z,27.26
2023-04-18T08:46:52.559Z,27.24
2023-04-18T08:47:52.557Z,27.23
2023-04-18T08:48:52.543Z,27.20
2023-04-18T08:49:52.538Z,27.21
2023-04-18T08:50:52.621Z,27.21
2023-04-18T08:51:52.629Z,27.18
2023-04-18T08:52:52.646Z,27.14
2023-04-18T08:53:52.694Z,27.10
2023-04-18T08:54:52.715Z,27.07
2023-04-18T08:55:52.806Z,27.03
2023-04-18T08:56:52.832Z,27.00
2023-04-18T08:57:52.870Z,26.91
2023-04-18T08:58:53.020Z,26.89
2023-04-18T08:59:53.022Z,26.83
2023-04-18T09:00:53.005Z,26.79
2023-04-18T09:01:52.988Z,26.72
2023-04-18T09:02:53.229Z,26.67
2023-04-18T09:03:52.982Z,26.62
2023-04-18T09:04:52.930Z,26.60
2023-04-18T09:05:53.164Z,26.57
2023-04-18T09:06:52.939Z,26.57
2023-04-18T09:07:52.967Z,26.60
2023-04-18T09:08:52.914Z,26.57
2023-04-18T09:09:52.945Z,26.60
2023-04-18T09:10:52.953Z,26.63
2023-04-18T09:11:53.045Z,26.66
2023-04-18T09:12:53.070Z,26.70
2023-04-18T09:13:53.067Z,26.73
2023-04-18T09:14:53.155Z,26.73
2023-04-18T09:15:53.210Z,26.76
2023-04-18T09:16:53.347Z,26.76
2023-04-18T09:17:53.400Z,26.77
2023-04-18T09:18:53.366Z,26.79
2023-04-18T09:19:53.465Z,26.80
2023-04-18T09:20:53.519Z,26.80
2023-04-18T09:21:53.578Z,26.82
2023-04-18T09:22:53.621Z,26.82
2023-04-18T09:23:53.799Z,26.82
2023-04-18T09:24:53.821Z,26.82
2023-04-18T09:25:54.164Z,26.83
2023-04-18T09:26:54.191Z,26.86
2023-04-18T09:27:53.910Z,26.82
2023-04-18T09:28:54.105Z,26.85
2023-04-18T09:29:55.791Z,26.83
2023-04-18T09:30:54.005Z,26.82
2023-04-18T09:31:54.140Z,26.85
2023-04-18T09:32:53.979Z,26.80
2023-04-18T09:33:54.007Z,26.80
2023-04-18T09:34:53.972Z,26.82
2023-04-18T09:35:53.945Z,26.82
2023-04-18T09:36:54.146Z,26.82
2023-04-18T09:37:54.158Z,26.80
2023-04-18T09:38:56.266Z,26.80
2023-04-18T09:39:53.959Z,26.82
2023-04-18T09:40:53.922Z,26.77
2023-04-18T09:41:54.127Z,26.77
2023-04-18T09:42:53.942Z,26.77
2023-04-18T09:43:53.903Z,26.76
2023-04-18T09:44:56.340Z,26.76
2023-04-18T09:45:53.913Z,26.76
2023-04-18T09:46:53.893Z,26.76
2023-04-18T09:47:53.955Z,26.72
2023-04-18T09:48:53.883Z,26.70
2023-04-18T09:49:53.916Z,26.64
2023-04-18T09:50:53.868Z,26.62
2023-04-18T09:51:54.141Z,26.59
2023-04-18T09:52:53.849Z,26.53
2023-04-18T09:53:53.896Z,26.49
2023-04-18T09:54:53.824Z,26.46
2023-04-18T09:55:56.168Z,26.45
2023-04-18T09:56:53.854Z,26.43
2023-04-18T09:57:53.812Z,26.40
2023-04-18T09:58:53.808Z,26.38
2023-04-18T09:59:53.792Z,26.38
2023-04-18T10:00:53.820Z,26.34
2023-04-18T10:01:53.829Z,26.34
2023-04-18T10:02:53.864Z,26.31
2023-04-18T10:03:53.850Z,26.29
2023-04-18T10:04:53.849Z,26.26
2023-04-18T10:05:54.832Z,26.28
2023-04-18T10:06:53.833Z,26.28
2023-04-18T10:07:53.810Z,26.26
2023-04-18T10:08:53.728Z,26.26
2023-04-18T10:09:53.749Z,26.28
2023-04-18T10:10:53.724Z,26.28
2023-04-18T10:11:54.145Z,26.28
2023-04-18T10:12:53.725Z,26.24
2023-04-18T10:13:53.693Z,26.25
2023-04-18T10:14:53.673Z,26.24
2023-04-18T10:15:53.726Z,26.21
2023-04-18T10:16:53.686Z,26.21
2023-04-18T10:18:03.616Z,26.21
2023-04-18T10:18:54.669Z,26.21
2023-04-18T10:19:53.687Z,26.19
2023-04-18T10:20:53.631Z,26.15
2023-04-18T10:21:53.665Z,26.18
2023-04-18T10:22:53.771Z,26.18
2023-04-18T10:23:53.620Z,26.16
2023-04-18T10:24:53.903Z,26.16
2023-04-18T10:25:53.611Z,26.16
2023-04-18T10:26:53.606Z,26.16
2023-04-18T10:27:53.583Z,26.15
2023-04-18T10:28:54.011Z,26.11
2023-04-18T10:29:53.616Z,26.12
2023-04-18T10:30:53.573Z,26.12
2023-04-18T10:31:53.627Z,26.14
2023-04-18T10:32:53.642Z,26.12
2023-04-18T10:34:04.020Z,26.14
2023-04-18T10:34:54.625Z,26.14
2023-04-18T10:35:53.539Z,26.12
2023-04-18T10:36:53.646Z,26.12
2023-04-18T10:37:53.533Z,26.09
2023-04-18T10:38:53.587Z,26.14
2023-04-18T10:39:53.562Z,26.12
2023-04-18T10:40:53.507Z,26.18
2023-04-18T10:41:53.548Z,26.15
2023-04-18T10:42:53.519Z,26.22
2023-04-18T10:43:53.474Z,26.24
2023-04-18T10:44:53.491Z,26.31
2023-04-18T10:45:53.498Z,26.34
2023-04-18T10:46:53.533Z,26.35
2023-04-18T10:47:53.787Z,26.45
2023-04-18T10:48:53.505Z,26.49
2023-04-18T10:49:53.508Z,26.55
2023-04-18T10:50:53.481Z,26.57
2023-04-18T10:51:53.471Z,26.62
2023-04-18T10:52:53.465Z,26.64
2023-04-18T10:53:53.525Z,26.69
2023-04-18T10:54:53.624Z,26.70
2023-04-18T10:55:53.608Z,26.75
2023-04-18T10:56:53.676Z,26.77
2023-04-18T10:57:53.698Z,26.82
2023-04-18T10:58:53.782Z,26.86
2023-04-18T10:59:53.777Z,26.87
2023-04-18T11:00:53.887Z,26.91
2023-04-18T11:01:53.869Z,26.93
2023-04-18T11:02:54.177Z,26.96
2023-04-18T11:03:54.075Z,26.99
2023-04-18T11:04:53.951Z,27.03
2023-04-18T11:05:54.002Z,27.04
2023-04-18T11:06:54.028Z,27.04
2023-04-18T11:07:54.046Z,27.07
2023-04-18T11:08:54.090Z,27.11
2023-04-18T11:09:54.059Z,27.13
2023-04-18T11:10:54.092Z,27.13
2023-04-18T11:11:54.124Z,27.17
2023-04-18T11:12:54.160Z,27.20
2023-04-18T11:13:54.194Z,27.21
2023-04-18T11:14:54.251Z,27.24
2023-04-18T11:15:54.211Z,27.26
2023-04-18T11:16:54.349Z,27.27
2023-04-18T11:17:54.323Z,27.30
2023-04-18T11:18:54.331Z,27.31
2023-04-18T11:19:54.348Z,27.33
2023-04-18T11:20:54.352Z,27.37
2023-04-18T11:21:54.668Z,27.37
2023-04-18T11:22:54.380Z,27.38
2023-04-18T11:23:54.393Z,27.40
2023-04-18T11:24:54.384Z,27.42
2023-04-18T11:25:54.430Z,27.44
2023-04-18T11:26:54.407Z,27.44
2023-04-18T11:27:54.446Z,27.47
2023-04-18T11:28:54.465Z,27.50
2023-04-18T11:29:54.456Z,27.50
2023-04-18T11:30:54.462Z,27.47
2023-04-18T11:31:58.326Z,27.47
2023-04-18T11:32:54.527Z,27.50
2023-04-18T11:33:54.455Z,27.50
2023-04-18T11:34:54.466Z,27.44
2023-04-18T11:35:54.469Z,27.47
2023-04-18T11:36:54.459Z,27.45
2023-04-18T11:37:54.451Z,27.47
2023-04-18T11:38:54.427Z,27.45
2023-04-18T11:39:54.429Z,27.45
2023-04-18T11:40:54.438Z,27.44
2023-04-18T11:41:54.411Z,27.42
2023-04-18T11:42:54.432Z,27.41
2023-04-18T11:43:54.457Z,27.38
2023-04-18T11:44:54.398Z,27.38
2023-04-18T11:45:54.439Z,27.38
2023-04-18T11:46:54.387Z,27.36
2023-04-18T11:47:54.396Z,27.34
2023-04-18T11:48:54.386Z,27.30
2023-04-18T11:49:55.788Z,27.28
2023-04-18T11:50:54.583Z,27.31
2023-04-18T11:51:54.591Z,27.26
2023-04-18T11:52:54.620Z,27.24
2023-04-18T11:53:54.654Z,27.21
2023-04-18T11:54:54.709Z,27.14
2023-04-18T11:55:54.734Z,27.13
2023-04-18T11:56:54.786Z,27.06
2023-04-18T11:57:54.873Z,27.03
2023-04-18T11:58:55.046Z,26.99
2023-04-18T11:59:54.943Z,26.91
2023-04-18T12:00:54.935Z,26.89
2023-04-18T12:01:58.537Z,26.85
2023-04-18T12:02:55.086Z,26.83
2023-04-18T12:03:55.133Z,26.80
2023-04-18T12:04:55.350Z,26.79
2023-04-18T12:05:55.057Z,26.79
2023-04-18T12:06:55.044Z,26.79
2023-04-18T12:07:55.652Z,26.79
2023-04-18T12:08:54.956Z,26.79
2023-04-18T12:09:54.899Z,26.79
2023-04-18T12:10:54.898Z,26.79
2023-04-18T12:11:54.873Z,26.80
2023-04-18T12:12:54.887Z,26.82
2023-04-18T12:13:54.931Z,26.80
2023-04-18T12:14:54.873Z,26.83
2023-04-18T12:15:54.978Z,26.82
2023-04-18T12:16:54.878Z,26.82
2023-04-18T12:17:54.866Z,26.83
2023-04-18T12:18:54.854Z,26.83
2023-04-18T12:19:54.826Z,26.83
2023-04-18T12:20:54.852Z,26.83
2023-04-18T12:21:54.847Z,26.86
2023-04-18T12:22:54.809Z,26.87
2023-04-18T12:23:54.837Z,26.86
2023-04-18T12:24:54.782Z,26.87
2023-04-18T12:25:54.795Z,26.87
2023-04-18T12:26:54.811Z,26.90
2023-04-18T12:27:54.819Z,26.89
2023-04-18T12:28:54.895Z,26.89
2023-04-18T12:29:54.821Z,26.91
2023-04-18T12:30:55.022Z,26.90
2023-04-18T12:31:55.053Z,26.91
2023-04-18T12:32:54.999Z,26.91
2023-04-18T12:33:55.054Z,26.89
2023-04-18T12:34:55.138Z,26.90
2023-04-18T12:35:55.211Z,26.91
2023-04-18T12:36:55.263Z,26.91
2023-04-18T12:37:55.367Z,26.91
2023-04-18T12:38:55.395Z,26.91
2023-04-18T12:39:55.428Z,26.91
2023-04-18T12:40:55.510Z,26.91
2023-04-18T12:41:55.548Z,26.93
2023-04-18T12:42:55.641Z,26.91
2023-04-18T12:43:55.711Z,26.93
2023-04-18T12:44:55.756Z,26.93
2023-04-18T12:45:55.858Z,26.93
2023-04-18T12:46:55.981Z,26.91
2023-04-18T12:47:56.002Z,26.93
2023-04-18T12:48:56.008Z,26.93
2023-04-18T12:49:56.092Z,26.93
2023-04-18T12:50:56.162Z,26.94
2023-04-18T12:51:56.207Z,26.93
2023-04-18T12:52:56.234Z,26.96